sensor_id;sensor_type;location;lat;lon;timestamp;P1;durP1;ratioP1;P2;durP2;ratioP2
13584;SDS011;6863;48.402;9.994;2024-01-30T00:00:41;34.50;;;27.97;;
13584;SDS011;6863;48.402;9.994;2024-01-30T00:03:06;34.77;;;26.17;;
13584;SDS011;6863;48.402;9.994;2024-01-30T00:05:32;34.03;;;27.07;;
13584;SDS011;6863;48.402;9.994;2024-01-30T00:07:57;34.40;;;25.60;;
13584;SDS011;6863;48.402;9.994;2024-01-30T00:10:23;30.30;;;25.10;;
13584;SDS011;6863;48.402;9.994;2024-01-30T00:12:48;30.93;;;26.00;;
13584;SDS011;6863;48.402;9.994;2024-01-30T00:15:14;31.10;;;25.13;;
13584;SDS011;6863;48.402;9.994;2024-01-30T00:17:40;29.97;;;24.73;;
13584;SDS011;6863;48.402;9.994;2024-01-30T00:20:05;33.73;;;24.90;;
13584;SDS011;6863;48.402;9.994;2024-01-30T00:22:32;37.03;;;26.97;;
13584;SDS011;6863;48.402;9.994;2024-01-30T00:24:57;33.20;;;25.60;;
13584;SDS011;6863;48.402;9.994;2024-01-30T00:27:23;30.63;;;23.43;;
13584;SDS011;6863;48.402;9.994;2024-01-30T00:29:48;30.43;;;22.77;;
13584;SDS011;6863;48.402;9.994;2024-01-30T00:32:14;29.03;;;22.47;;
13584;SDS011;6863;48.402;9.994;2024-01-30T00:34:41;30.87;;;23.13;;
13584;SDS011;6863;48.402;9.994;2024-01-30T00:37:06;26.57;;;21.43;;
13584;SDS011;6863;48.402;9.994;2024-01-30T00:39:32;26.60;;;21.67;;
13584;SDS011;6863;48.402;9.994;2024-01-30T00:41:58;26.70;;;22.00;;
13584;SDS011;6863;48.402;9.994;2024-01-30T00:44:23;26.77;;;20.13;;
13584;SDS011;6863;48.402;9.994;2024-01-30T00:46:49;28.33;;;22.77;;
13584;SDS011;6863;48.402;9.994;2024-01-30T00:49:14;24.93;;;20.73;;
13584;SDS011;6863;48.402;9.994;2024-01-30T00:51:40;26.37;;;20.73;;
13584;SDS011;6863;48.402;9.994;2024-01-30T00:54:05;26.03;;;20.90;;
13584;SDS011;6863;48.402;9.994;2024-01-30T00:56:31;25.90;;;20.97;;
13584;SDS011;6863;48.402;9.994;2024-01-30T00:58:57;28.23;;;21.63;;
13584;SDS011;6863;48.402;9.994;2024-01-30T01:01:22;27.60;;;22.13;;
13584;SDS011;6863;48.402;9.994;2024-01-30T01:03:48;30.23;;;22.63;;
13584;SDS011;6863;48.402;9.994;2024-01-30T01:06:13;28.43;;;22.10;;
13584;SDS011;6863;48.402;9.994;2024-01-30T01:08:39;29.67;;;23.70;;
13584;SDS011;6863;48.402;9.994;2024-01-30T01:11:05;29.27;;;21.80;;
13584;SDS011;6863;48.402;9.994;2024-01-30T01:13:30;33.13;;;24.73;;
13584;SDS011;6863;48.402;9.994;2024-01-30T01:15:56;29.70;;;22.20;;
13584;SDS011;6863;48.402;9.994;2024-01-30T01:18:21;30.37;;;22.43;;
13584;SDS011;6863;48.402;9.994;2024-01-30T01:20:47;27.37;;;22.07;;
13584;SDS011;6863;48.402;9.994;2024-01-30T01:23:12;25.40;;;21.10;;
13584;SDS011;6863;48.402;9.994;2024-01-30T01:25:38;29.73;;;22.57;;
13584;SDS011;6863;48.402;9.994;2024-01-30T01:28:04;27.47;;;22.67;;
13584;SDS011;6863;48.402;9.994;2024-01-30T01:30:29;26.47;;;21.67;;
13584;SDS011;6863;48.402;9.994;2024-01-30T01:32:55;26.00;;;22.40;;
13584;SDS011;6863;48.402;9.994;2024-01-30T01:35:22;26.20;;;21.53;;
13584;SDS011;6863;48.402;9.994;2024-01-30T01:37:52;26.70;;;21.63;;
13584;SDS011;6863;48.402;9.994;2024-01-30T01:40:23;31.43;;;24.00;;
13584;SDS011;6863;48.402;9.994;2024-01-30T01:42:50;29.93;;;23.23;;
13584;SDS011;6863;48.402;9.994;2024-01-30T01:45:19;28.23;;;22.07;;
13584;SDS011;6863;48.402;9.994;2024-01-30T01:47:46;24.93;;;20.90;;
13584;SDS011;6863;48.402;9.994;2024-01-30T01:50:15;26.87;;;21.77;;
13584;SDS011;6863;48.402;9.994;2024-01-30T01:52:43;26.97;;;22.37;;
13584;SDS011;6863;48.402;9.994;2024-01-30T01:55:12;27.17;;;22.33;;
13584;SDS011;6863;48.402;9.994;2024-01-30T01:57:39;26.57;;;22.30;;
13584;SDS011;6863;48.402;9.994;2024-01-30T02:00:06;25.47;;;21.53;;
13584;SDS011;6863;48.402;9.994;2024-01-30T02:02:35;29.23;;;22.43;;
13584;SDS011;6863;48.402;9.994;2024-01-30T02:05:01;29.87;;;22.43;;
13584;SDS011;6863;48.402;9.994;2024-01-30T02:07:27;26.03;;;21.77;;
13584;SDS011;6863;48.402;9.994;2024-01-30T02:09:53;28.97;;;21.47;;
13584;SDS011;6863;48.402;9.994;2024-01-30T02:12:20;24.83;;;21.57;;
13584;SDS011;6863;48.402;9.994;2024-01-30T02:14:46;25.53;;;21.47;;
13584;SDS011;6863;48.402;9.994;2024-01-30T02:17:12;26.53;;;21.73;;
13584;SDS011;6863;48.402;9.994;2024-01-30T02:19:38;27.40;;;22.17;;
13584;SDS011;6863;48.402;9.994;2024-01-30T02:22:04;28.43;;;22.10;;
13584;SDS011;6863;48.402;9.994;2024-01-30T02:24:30;29.50;;;21.80;;
13584;SDS011;6863;48.402;9.994;2024-01-30T02:26:56;27.07;;;22.10;;
13584;SDS011;6863;48.402;9.994;2024-01-30T02:29:22;28.33;;;21.97;;
13584;SDS011;6863;48.402;9.994;2024-01-30T02:31:48;32.00;;;22.37;;
13584;SDS011;6863;48.402;9.994;2024-01-30T02:34:13;29.97;;;23.47;;
13584;SDS011;6863;48.402;9.994;2024-01-30T02:36:43;26.90;;;22.03;;
13584;SDS011;6863;48.402;9.994;2024-01-30T02:39:08;25.13;;;20.63;;
13584;SDS011;6863;48.402;9.994;2024-01-30T02:41:34;26.20;;;21.70;;
13584;SDS011;6863;48.402;9.994;2024-01-30T02:44:01;25.37;;;21.57;;
13584;SDS011;6863;48.402;9.994;2024-01-30T02:46:29;28.57;;;19.97;;
13584;SDS011;6863;48.402;9.994;2024-01-30T02:48:55;25.73;;;21.00;;
13584;SDS011;6863;48.402;9.994;2024-01-30T02:51:20;26.37;;;20.50;;
13584;SDS011;6863;48.402;9.994;2024-01-30T02:53:46;31.63;;;23.00;;
13584;SDS011;6863;48.402;9.994;2024-01-30T02:56:12;27.87;;;21.00;;
13584;SDS011;6863;48.402;9.994;2024-01-30T02:58:38;25.67;;;20.43;;
13584;SDS011;6863;48.402;9.994;2024-01-30T03:01:04;23.80;;;20.63;;
13584;SDS011;6863;48.402;9.994;2024-01-30T03:03:30;25.23;;;19.87;;
13584;SDS011;6863;48.402;9.994;2024-01-30T03:05:55;28.37;;;20.93;;
13584;SDS011;6863;48.402;9.994;2024-01-30T03:08:21;26.37;;;20.80;;
13584;SDS011;6863;48.402;9.994;2024-01-30T03:10:46;25.33;;;20.57;;
13584;SDS011;6863;48.402;9.994;2024-01-30T03:13:12;25.47;;;19.93;;
13584;SDS011;6863;48.402;9.994;2024-01-30T03:15:38;28.73;;;21.77;;
13584;SDS011;6863;48.402;9.994;2024-01-30T03:18:03;27.80;;;21.23;;
13584;SDS011;6863;48.402;9.994;2024-01-30T03:20:29;24.63;;;20.57;;
13584;SDS011;6863;48.402;9.994;2024-01-30T03:22:55;27.50;;;20.60;;
13584;SDS011;6863;48.402;9.994;2024-01-30T03:25:21;26.77;;;20.73;;
13584;SDS011;6863;48.402;9.994;2024-01-30T03:27:46;28.80;;;21.67;;
13584;SDS011;6863;48.402;9.994;2024-01-30T03:30:12;23.97;;;19.93;;
13584;SDS011;6863;48.402;9.994;2024-01-30T03:32:37;28.17;;;22.33;;
13584;SDS011;6863;48.402;9.994;2024-01-30T03:35:03;27.20;;;20.23;;
13584;SDS011;6863;48.402;9.994;2024-01-30T03:37:29;27.93;;;21.33;;
13584;SDS011;6863;48.402;9.994;2024-01-30T03:39:55;29.47;;;21.20;;
13584;SDS011;6863;48.402;9.994;2024-01-30T03:42:20;25.77;;;20.97;;
13584;SDS011;6863;48.402;9.994;2024-01-30T03:44:47;31.27;;;21.30;;
13584;SDS011;6863;48.402;9.994;2024-01-30T03:47:13;26.37;;;20.07;;
13584;SDS011;6863;48.402;9.994;2024-01-30T03:49:38;27.90;;;20.43;;
13584;SDS011;6863;48.402;9.994;2024-01-30T03:52:04;23.87;;;20.83;;
13584;SDS011;6863;48.402;9.994;2024-01-30T03:54:29;27.70;;;20.67;;
13584;SDS011;6863;48.402;9.994;2024-01-30T03:56:55;26.87;;;20.90;;
13584;SDS011;6863;48.402;9.994;2024-01-30T03:59:20;29.57;;;22.13;;
13584;SDS011;6863;48.402;9.994;2024-01-30T04:01:49;27.97;;;21.50;;
13584;SDS011;6863;48.402;9.994;2024-01-30T04:04:16;24.93;;;20.40;;
13584;SDS011;6863;48.402;9.994;2024-01-30T04:06:43;26.00;;;21.07;;
13584;SDS011;6863;48.402;9.994;2024-01-30T04:09:09;27.30;;;21.47;;
13584;SDS011;6863;48.402;9.994;2024-01-30T04:11:35;30.67;;;21.43;;
13584;SDS011;6863;48.402;9.994;2024-01-30T04:14:00;26.33;;;20.77;;
13584;SDS011;6863;48.402;9.994;2024-01-30T04:16:26;29.17;;;20.67;;
13584;SDS011;6863;48.402;9.994;2024-01-30T04:18:52;29.87;;;22.87;;
13584;SDS011;6863;48.402;9.994;2024-01-30T04:21:17;26.83;;;21.43;;
13584;SDS011;6863;48.402;9.994;2024-01-30T04:23:43;26.77;;;21.20;;
13584;SDS011;6863;48.402;9.994;2024-01-30T04:26:08;28.10;;;21.23;;
13584;SDS011;6863;48.402;9.994;2024-01-30T04:28:34;27.03;;;20.83;;
13584;SDS011;6863;48.402;9.994;2024-01-30T04:30:59;28.03;;;21.83;;
13584;SDS011;6863;48.402;9.994;2024-01-30T04:33:25;28.63;;;20.73;;
13584;SDS011;6863;48.402;9.994;2024-01-30T04:35:50;29.23;;;21.37;;
13584;SDS011;6863;48.402;9.994;2024-01-30T04:38:16;26.43;;;21.20;;
13584;SDS011;6863;48.402;9.994;2024-01-30T04:40:42;23.30;;;20.37;;
13584;SDS011;6863;48.402;9.994;2024-01-30T04:43:08;26.73;;;20.87;;
13584;SDS011;6863;48.402;9.994;2024-01-30T04:45:33;25.07;;;20.90;;
13584;SDS011;6863;48.402;9.994;2024-01-30T04:48:00;26.57;;;20.13;;
13584;SDS011;6863;48.402;9.994;2024-01-30T04:50:25;26.33;;;20.77;;
13584;SDS011;6863;48.402;9.994;2024-01-30T04:52:51;27.17;;;21.10;;
13584;SDS011;6863;48.402;9.994;2024-01-30T04:55:17;24.03;;;19.70;;
13584;SDS011;6863;48.402;9.994;2024-01-30T04:57:43;27.30;;;21.70;;
13584;SDS011;6863;48.402;9.994;2024-01-30T05:00:08;26.43;;;20.17;;
13584;SDS011;6863;48.402;9.994;2024-01-30T05:02:34;21.33;;;18.60;;
13584;SDS011;6863;48.402;9.994;2024-01-30T05:05:00;26.43;;;19.93;;
13584;SDS011;6863;48.402;9.994;2024-01-30T05:07:25;25.20;;;20.40;;
13584;SDS011;6863;48.402;9.994;2024-01-30T05:09:51;24.90;;;20.33;;
13584;SDS011;6863;48.402;9.994;2024-01-30T05:12:17;26.00;;;20.37;;
13584;SDS011;6863;48.402;9.994;2024-01-30T05:14:42;25.73;;;19.37;;
13584;SDS011;6863;48.402;9.994;2024-01-30T05:17:08;27.53;;;19.33;;
13584;SDS011;6863;48.402;9.994;2024-01-30T05:19:35;24.80;;;20.23;;
13584;SDS011;6863;48.402;9.994;2024-01-30T05:22:01;24.07;;;19.93;;
13584;SDS011;6863;48.402;9.994;2024-01-30T05:24:26;25.93;;;19.93;;
13584;SDS011;6863;48.402;9.994;2024-01-30T05:26:52;25.00;;;20.80;;
13584;SDS011;6863;48.402;9.994;2024-01-30T05:29:17;26.30;;;19.97;;
13584;SDS011;6863;48.402;9.994;2024-01-30T05:31:43;25.80;;;19.67;;
13584;SDS011;6863;48.402;9.994;2024-01-30T05:34:09;25.27;;;20.00;;
13584;SDS011;6863;48.402;9.994;2024-01-30T05:36:34;23.47;;;19.67;;
13584;SDS011;6863;48.402;9.994;2024-01-30T05:39:00;22.87;;;18.97;;
13584;SDS011;6863;48.402;9.994;2024-01-30T05:41:26;25.67;;;19.43;;
13584;SDS011;6863;48.402;9.994;2024-01-30T05:43:51;27.17;;;19.50;;
13584;SDS011;6863;48.402;9.994;2024-01-30T05:46:17;27.00;;;19.77;;
13584;SDS011;6863;48.402;9.994;2024-01-30T05:48:42;25.23;;;20.33;;
13584;SDS011;6863;48.402;9.994;2024-01-30T05:51:08;26.07;;;19.63;;
13584;SDS011;6863;48.402;9.994;2024-01-30T05:53:34;24.00;;;19.77;;
13584;SDS011;6863;48.402;9.994;2024-01-30T05:56:03;28.53;;;21.13;;
13584;SDS011;6863;48.402;9.994;2024-01-30T05:58:28;29.80;;;22.40;;
13584;SDS011;6863;48.402;9.994;2024-01-30T06:00:54;27.97;;;20.53;;
13584;SDS011;6863;48.402;9.994;2024-01-30T06:03:20;25.30;;;20.03;;
13584;SDS011;6863;48.402;9.994;2024-01-30T06:05:46;24.77;;;19.13;;
13584;SDS011;6863;48.402;9.994;2024-01-30T06:08:12;27.20;;;20.30;;
13584;SDS011;6863;48.402;9.994;2024-01-30T06:10:37;26.70;;;20.53;;
13584;SDS011;6863;48.402;9.994;2024-01-30T06:13:03;27.30;;;21.10;;
13584;SDS011;6863;48.402;9.994;2024-01-30T06:15:28;28.40;;;20.60;;
13584;SDS011;6863;48.402;9.994;2024-01-30T06:17:57;28.87;;;21.40;;
13584;SDS011;6863;48.402;9.994;2024-01-30T06:20:23;29.23;;;21.93;;
13584;SDS011;6863;48.402;9.994;2024-01-30T06:22:49;29.17;;;20.50;;
13584;SDS011;6863;48.402;9.994;2024-01-30T06:25:14;26.03;;;20.20;;
13584;SDS011;6863;48.402;9.994;2024-01-30T06:27:41;26.70;;;20.03;;
13584;SDS011;6863;48.402;9.994;2024-01-30T06:30:07;28.47;;;20.83;;
13584;SDS011;6863;48.402;9.994;2024-01-30T06:32:33;28.67;;;19.73;;
13584;SDS011;6863;48.402;9.994;2024-01-30T06:35:00;24.57;;;18.40;;
13584;SDS011;6863;48.402;9.994;2024-01-30T06:37:26;25.17;;;19.03;;
13584;SDS011;6863;48.402;9.994;2024-01-30T06:39:52;31.97;;;22.63;;
13584;SDS011;6863;48.402;9.994;2024-01-30T06:42:18;24.37;;;17.93;;
13584;SDS011;6863;48.402;9.994;2024-01-30T06:44:43;24.97;;;18.40;;
13584;SDS011;6863;48.402;9.994;2024-01-30T06:47:09;26.23;;;19.37;;
13584;SDS011;6863;48.402;9.994;2024-01-30T06:49:35;25.43;;;18.80;;
13584;SDS011;6863;48.402;9.994;2024-01-30T06:52:05;31.23;;;22.07;;
13584;SDS011;6863;48.402;9.994;2024-01-30T06:54:31;27.57;;;21.40;;
13584;SDS011;6863;48.402;9.994;2024-01-30T06:56:57;27.90;;;20.17;;
13584;SDS011;6863;48.402;9.994;2024-01-30T06:59:23;30.10;;;22.07;;
13584;SDS011;6863;48.402;9.994;2024-01-30T07:01:49;26.47;;;21.07;;
13584;SDS011;6863;48.402;9.994;2024-01-30T07:04:14;28.63;;;22.10;;
13584;SDS011;6863;48.402;9.994;2024-01-30T07:06:41;27.37;;;21.47;;
13584;SDS011;6863;48.402;9.994;2024-01-30T07:09:06;27.70;;;21.93;;
13584;SDS011;6863;48.402;9.994;2024-01-30T07:11:32;29.23;;;21.90;;
13584;SDS011;6863;48.402;9.994;2024-01-30T07:13:57;31.17;;;22.03;;
13584;SDS011;6863;48.402;9.994;2024-01-30T07:16:23;27.93;;;21.60;;
13584;SDS011;6863;48.402;9.994;2024-01-30T07:18:49;27.07;;;21.90;;
13584;SDS011;6863;48.402;9.994;2024-01-30T07:21:15;25.77;;;21.10;;
13584;SDS011;6863;48.402;9.994;2024-01-30T07:23:40;27.70;;;20.30;;
13584;SDS011;6863;48.402;9.994;2024-01-30T07:26:07;29.33;;;21.07;;
13584;SDS011;6863;48.402;9.994;2024-01-30T07:28:33;26.97;;;21.47;;
13584;SDS011;6863;48.402;9.994;2024-01-30T07:30:59;27.30;;;19.70;;
13584;SDS011;6863;48.402;9.994;2024-01-30T07:33:25;26.67;;;21.43;;
13584;SDS011;6863;48.402;9.994;2024-01-30T07:35:52;25.80;;;19.57;;
13584;SDS011;6863;48.402;9.994;2024-01-30T07:38:17;20.97;;;18.03;;
13584;SDS011;6863;48.402;9.994;2024-01-30T07:40:43;25.33;;;20.07;;
13584;SDS011;6863;48.402;9.994;2024-01-30T07:43:09;24.80;;;19.03;;
13584;SDS011;6863;48.402;9.994;2024-01-30T07:45:35;21.50;;;17.63;;
13584;SDS011;6863;48.402;9.994;2024-01-30T07:48:02;22.13;;;17.80;;
13584;SDS011;6863;48.402;9.994;2024-01-30T07:50:28;24.37;;;18.37;;
13584;SDS011;6863;48.402;9.994;2024-01-30T07:52:55;20.93;;;17.50;;
13584;SDS011;6863;48.402;9.994;2024-01-30T07:55:21;23.60;;;17.23;;
13584;SDS011;6863;48.402;9.994;2024-01-30T07:57:52;23.40;;;17.60;;
13584;SDS011;6863;48.402;9.994;2024-01-30T08:00:18;22.80;;;17.27;;
13584;SDS011;6863;48.402;9.994;2024-01-30T08:02:47;20.77;;;17.20;;
13584;SDS011;6863;48.402;9.994;2024-01-30T08:05:13;21.57;;;16.93;;
13584;SDS011;6863;48.402;9.994;2024-01-30T08:07:40;20.10;;;16.67;;
13584;SDS011;6863;48.402;9.994;2024-01-30T08:10:07;20.10;;;17.00;;
13584;SDS011;6863;48.402;9.994;2024-01-30T08:12:33;22.57;;;16.97;;
13584;SDS011;6863;48.402;9.994;2024-01-30T08:14:58;17.63;;;15.33;;
13584;SDS011;6863;48.402;9.994;2024-01-30T08:17:24;21.17;;;14.97;;
13584;SDS011;6863;48.402;9.994;2024-01-30T08:19:49;21.27;;;17.30;;
13584;SDS011;6863;48.402;9.994;2024-01-30T08:22:15;17.60;;;14.13;;
13584;SDS011;6863;48.402;9.994;2024-01-30T08:24:41;18.33;;;14.70;;
13584;SDS011;6863;48.402;9.994;2024-01-30T08:27:06;16.90;;;14.10;;
13584;SDS011;6863;48.402;9.994;2024-01-30T08:29:35;16.53;;;14.67;;
13584;SDS011;6863;48.402;9.994;2024-01-30T08:32:00;19.00;;;14.83;;
13584;SDS011;6863;48.402;9.994;2024-01-30T08:34:26;17.30;;;14.60;;
13584;SDS011;6863;48.402;9.994;2024-01-30T08:36:52;16.50;;;14.80;;
13584;SDS011;6863;48.402;9.994;2024-01-30T08:39:17;15.53;;;13.93;;
13584;SDS011;6863;48.402;9.994;2024-01-30T08:41:43;15.50;;;13.90;;
13584;SDS011;6863;48.402;9.994;2024-01-30T08:44:09;15.43;;;13.57;;
13584;SDS011;6863;48.402;9.994;2024-01-30T08:46:36;17.00;;;14.07;;
13584;SDS011;6863;48.402;9.994;2024-01-30T08:49:01;15.87;;;14.20;;
13584;SDS011;6863;48.402;9.994;2024-01-30T08:51:27;14.70;;;13.23;;
13584;SDS011;6863;48.402;9.994;2024-01-30T08:53:53;15.23;;;13.47;;
13584;SDS011;6863;48.402;9.994;2024-01-30T08:56:19;15.97;;;14.13;;
13584;SDS011;6863;48.402;9.994;2024-01-30T08:58:44;15.57;;;13.77;;
13584;SDS011;6863;48.402;9.994;2024-01-30T09:01:10;14.50;;;13.00;;
13584;SDS011;6863;48.402;9.994;2024-01-30T09:03:35;14.80;;;13.40;;
13584;SDS011;6863;48.402;9.994;2024-01-30T09:06:07;14.80;;;13.30;;
13584;SDS011;6863;48.402;9.994;2024-01-30T09:08:36;14.80;;;13.27;;
13584;SDS011;6863;48.402;9.994;2024-01-30T09:11:08;15.60;;;14.10;;
13584;SDS011;6863;48.402;9.994;2024-01-30T09:13:37;16.37;;;14.60;;
13584;SDS011;6863;48.402;9.994;2024-01-30T09:16:03;15.30;;;13.83;;
13584;SDS011;6863;48.402;9.994;2024-01-30T09:18:29;16.23;;;14.63;;
13584;SDS011;6863;48.402;9.994;2024-01-30T09:20:55;17.70;;;15.70;;
13584;SDS011;6863;48.402;9.994;2024-01-30T09:23:20;17.03;;;15.23;;
13584;SDS011;6863;48.402;9.994;2024-01-30T09:25:46;15.77;;;14.30;;
13584;SDS011;6863;48.402;9.994;2024-01-30T09:28:12;16.80;;;15.00;;
13584;SDS011;6863;48.402;9.994;2024-01-30T09:30:38;15.63;;;14.13;;
13584;SDS011;6863;48.402;9.994;2024-01-30T09:33:03;17.23;;;15.43;;
13584;SDS011;6863;48.402;9.994;2024-01-30T09:35:29;16.07;;;14.47;;
13584;SDS011;6863;48.402;9.994;2024-01-30T09:37:55;17.73;;;14.70;;
13584;SDS011;6863;48.402;9.994;2024-01-30T09:40:22;16.73;;;15.00;;
13584;SDS011;6863;48.402;9.994;2024-01-30T09:42:47;16.67;;;14.57;;
13584;SDS011;6863;48.402;9.994;2024-01-30T09:45:15;18.17;;;14.57;;
13584;SDS011;6863;48.402;9.994;2024-01-30T09:47:43;16.60;;;14.80;;
13584;SDS011;6863;48.402;9.994;2024-01-30T09:50:10;20.40;;;14.83;;
13584;SDS011;6863;48.402;9.994;2024-01-30T09:52:37;15.57;;;13.90;;
13584;SDS011;6863;48.402;9.994;2024-01-30T09:55:03;16.00;;;14.40;;
13584;SDS011;6863;48.402;9.994;2024-01-30T09:57:29;15.67;;;13.50;;
13584;SDS011;6863;48.402;9.994;2024-01-30T09:59:55;15.87;;;14.27;;
13584;SDS011;6863;48.402;9.994;2024-01-30T10:02:21;16.10;;;14.50;;
13584;SDS011;6863;48.402;9.994;2024-01-30T10:04:47;15.70;;;14.07;;
13584;SDS011;6863;48.402;9.994;2024-01-30T10:07:14;16.67;;;14.90;;
13584;SDS011;6863;48.402;9.994;2024-01-30T10:09:40;16.47;;;14.73;;
13584;SDS011;6863;48.402;9.994;2024-01-30T10:12:06;17.90;;;15.47;;
13584;SDS011;6863;48.402;9.994;2024-01-30T10:14:33;15.23;;;13.73;;
13584;SDS011;6863;48.402;9.994;2024-01-30T10:16:58;16.90;;;15.20;;
13584;SDS011;6863;48.402;9.994;2024-01-30T10:19:24;17.60;;;15.27;;
13584;SDS011;6863;48.402;9.994;2024-01-30T10:21:50;15.53;;;13.63;;
13584;SDS011;6863;48.402;9.994;2024-01-30T10:24:15;16.33;;;14.10;;
13584;SDS011;6863;48.402;9.994;2024-01-30T10:26:43;16.43;;;14.63;;
13584;SDS011;6863;48.402;9.994;2024-01-30T10:29:09;17.30;;;15.07;;
13584;SDS011;6863;48.402;9.994;2024-01-30T10:31:35;16.80;;;14.90;;
13584;SDS011;6863;48.402;9.994;2024-01-30T10:34:00;17.27;;;15.03;;
13584;SDS011;6863;48.402;9.994;2024-01-30T10:36:28;14.90;;;13.50;;
13584;SDS011;6863;48.402;9.994;2024-01-30T10:38:59;18.13;;;15.20;;
13584;SDS011;6863;48.402;9.994;2024-01-30T10:41:27;16.47;;;14.87;;
13584;SDS011;6863;48.402;9.994;2024-01-30T10:44:02;15.57;;;14.03;;
13584;SDS011;6863;48.402;9.994;2024-01-30T10:46:33;17.57;;;15.70;;
13584;SDS011;6863;48.402;9.994;2024-01-30T10:49:02;16.17;;;14.37;;
13584;SDS011;6863;48.402;9.994;2024-01-30T10:51:28;17.77;;;15.87;;
13584;SDS011;6863;48.402;9.994;2024-01-30T10:53:56;17.50;;;15.67;;
13584;SDS011;6863;48.402;9.994;2024-01-30T10:56:22;16.97;;;15.13;;
13584;SDS011;6863;48.402;9.994;2024-01-30T10:58:50;17.40;;;15.53;;
13584;SDS011;6863;48.402;9.994;2024-01-30T11:01:23;16.80;;;15.00;;
13584;SDS011;6863;48.402;9.994;2024-01-30T11:03:53;21.07;;;15.83;;
13584;SDS011;6863;48.402;9.994;2024-01-30T11:06:25;18.67;;;16.73;;
13584;SDS011;6863;48.402;9.994;2024-01-30T11:09:00;17.03;;;15.20;;
13584;SDS011;6863;48.402;9.994;2024-01-30T11:11:28;17.20;;;15.40;;
13584;SDS011;6863;48.402;9.994;2024-01-30T11:13:54;17.37;;;15.57;;
13584;SDS011;6863;48.402;9.994;2024-01-30T11:16:20;18.43;;;16.37;;
13584;SDS011;6863;48.402;9.994;2024-01-30T11:18:49;17.37;;;15.53;;
13584;SDS011;6863;48.402;9.994;2024-01-30T11:21:16;17.27;;;15.53;;
13584;SDS011;6863;48.402;9.994;2024-01-30T11:23:42;18.17;;;15.88;;
13584;SDS011;6863;48.402;9.994;2024-01-30T11:26:10;20.50;;;15.55;;
13584;SDS011;6863;48.402;9.994;2024-01-30T11:28:36;18.60;;;16.77;;
13584;SDS011;6863;48.402;9.994;2024-01-30T11:31:06;17.65;;;15.85;;
13584;SDS011;6863;48.402;9.994;2024-01-30T11:33:32;19.17;;;17.10;;
13584;SDS011;6863;48.402;9.994;2024-01-30T11:35:59;21.45;;;16.27;;
13584;SDS011;6863;48.402;9.994;2024-01-30T11:38:26;18.13;;;16.20;;
13584;SDS011;6863;48.402;9.994;2024-01-30T11:40:55;18.63;;;16.10;;
13584;SDS011;6863;48.402;9.994;2024-01-30T11:43:22;21.53;;;15.70;;
13584;SDS011;6863;48.402;9.994;2024-01-30T11:45:48;17.97;;;16.07;;
13584;SDS011;6863;48.402;9.994;2024-01-30T11:48:14;18.27;;;16.33;;
13584;SDS011;6863;48.402;9.994;2024-01-30T11:50:40;17.50;;;15.70;;
13584;SDS011;6863;48.402;9.994;2024-01-30T11:53:06;18.67;;;16.40;;
13584;SDS011;6863;48.402;9.994;2024-01-30T11:58:07;18.53;;;15.23;;
13584;SDS011;6863;48.402;9.994;2024-01-30T12:00:33;17.33;;;15.03;;
13584;SDS011;6863;48.402;9.994;2024-01-30T12:02:59;16.33;;;14.73;;
13584;SDS011;6863;48.402;9.994;2024-01-30T12:05:26;17.80;;;15.83;;
13584;SDS011;6863;48.402;9.994;2024-01-30T12:07:53;17.63;;;15.83;;
13584;SDS011;6863;48.402;9.994;2024-01-30T12:10:18;17.83;;;16.03;;
13584;SDS011;6863;48.402;9.994;2024-01-30T12:12:45;16.97;;;15.20;;
13584;SDS011;6863;48.402;9.994;2024-01-30T12:15:13;17.77;;;15.13;;
13584;SDS011;6863;48.402;9.994;2024-01-30T12:17:39;17.20;;;15.47;;
13584;SDS011;6863;48.402;9.994;2024-01-30T12:20:05;17.90;;;16.10;;
13584;SDS011;6863;48.402;9.994;2024-01-30T12:22:43;18.83;;;15.33;;
13584;SDS011;6863;48.402;9.994;2024-01-30T12:25:10;17.43;;;15.53;;
13584;SDS011;6863;48.402;9.994;2024-01-30T12:27:42;18.63;;;16.67;;
13584;SDS011;6863;48.402;9.994;2024-01-30T12:30:13;18.30;;;16.40;;
13584;SDS011;6863;48.402;9.994;2024-01-30T12:32:40;16.67;;;14.30;;
13584;SDS011;6863;48.402;9.994;2024-01-30T12:35:12;20.43;;;16.43;;
13584;SDS011;6863;48.402;9.994;2024-01-30T12:37:39;20.33;;;18.17;;
13584;SDS011;6863;48.402;9.994;2024-01-30T12:40:07;17.23;;;14.80;;
13584;SDS011;6863;48.402;9.994;2024-01-30T12:42:33;18.30;;;15.53;;
13584;SDS011;6863;48.402;9.994;2024-01-30T12:44:59;19.67;;;17.47;;
13584;SDS011;6863;48.402;9.994;2024-01-30T12:47:25;17.30;;;15.13;;
13584;SDS011;6863;48.402;9.994;2024-01-30T12:49:50;19.43;;;15.60;;
13584;SDS011;6863;48.402;9.994;2024-01-30T12:52:19;16.57;;;14.73;;
13584;SDS011;6863;48.402;9.994;2024-01-30T12:54:46;19.87;;;16.53;;
13584;SDS011;6863;48.402;9.994;2024-01-30T12:57:12;17.40;;;15.60;;
13584;SDS011;6863;48.402;9.994;2024-01-30T12:59:38;21.30;;;16.03;;
13584;SDS011;6863;48.402;9.994;2024-01-30T13:02:04;18.20;;;16.30;;
13584;SDS011;6863;48.402;9.994;2024-01-30T13:04:30;17.67;;;15.10;;
13584;SDS011;6863;48.402;9.994;2024-01-30T13:06:55;17.97;;;16.10;;
13584;SDS011;6863;48.402;9.994;2024-01-30T13:09:21;17.67;;;15.80;;
13584;SDS011;6863;48.402;9.994;2024-01-30T13:11:47;18.43;;;16.40;;
13584;SDS011;6863;48.402;9.994;2024-01-30T13:14:16;19.83;;;16.60;;
13584;SDS011;6863;48.402;9.994;2024-01-30T13:16:42;18.43;;;16.47;;
13584;SDS011;6863;48.402;9.994;2024-01-30T13:19:08;18.00;;;16.10;;
13584;SDS011;6863;48.402;9.994;2024-01-30T13:21:34;20.63;;;16.50;;
13584;SDS011;6863;48.402;9.994;2024-01-30T13:23:59;18.97;;;15.83;;
13584;SDS011;6863;48.402;9.994;2024-01-30T13:26:25;17.57;;;15.67;;
13584;SDS011;6863;48.402;9.994;2024-01-30T13:28:51;18.43;;;16.00;;
13584;SDS011;6863;48.402;9.994;2024-01-30T13:31:16;17.40;;;15.60;;
13584;SDS011;6863;48.402;9.994;2024-01-30T13:33:42;18.03;;;16.23;;
13584;SDS011;6863;48.402;9.994;2024-01-30T13:36:09;18.67;;;16.60;;
13584;SDS011;6863;48.402;9.994;2024-01-30T13:38:35;19.40;;;15.27;;
13584;SDS011;6863;48.402;9.994;2024-01-30T13:41:01;18.93;;;16.37;;
13584;SDS011;6863;48.402;9.994;2024-01-30T13:43:27;18.20;;;16.23;;
13584;SDS011;6863;48.402;9.994;2024-01-30T13:45:53;18.43;;;16.33;;
13584;SDS011;6863;48.402;9.994;2024-01-30T13:48:19;19.47;;;16.80;;
13584;SDS011;6863;48.402;9.994;2024-01-30T13:50:44;19.43;;;16.43;;
13584;SDS011;6863;48.402;9.994;2024-01-30T13:53:11;20.00;;;16.30;;
13584;SDS011;6863;48.402;9.994;2024-01-30T13:58:08;18.97;;;14.60;;
13584;SDS011;6863;48.402;9.994;2024-01-30T14:00:34;18.23;;;15.63;;
13584;SDS011;6863;48.402;9.994;2024-01-30T14:03:00;18.83;;;15.30;;
13584;SDS011;6863;48.402;9.994;2024-01-30T14:05:26;16.47;;;14.73;;
13584;SDS011;6863;48.402;9.994;2024-01-30T14:07:54;18.97;;;14.50;;
13584;SDS011;6863;48.402;9.994;2024-01-30T14:10:20;20.73;;;14.87;;
13584;SDS011;6863;48.402;9.994;2024-01-30T14:12:46;18.13;;;14.40;;
13584;SDS011;6863;48.402;9.994;2024-01-30T14:15:13;18.97;;;14.93;;
13584;SDS011;6863;48.402;9.994;2024-01-30T14:17:43;16.63;;;13.77;;
13584;SDS011;6863;48.402;9.994;2024-01-30T14:20:10;15.30;;;13.80;;
13584;SDS011;6863;48.402;9.994;2024-01-30T14:22:36;15.37;;;13.80;;
13584;SDS011;6863;48.402;9.994;2024-01-30T14:25:01;16.70;;;14.03;;
13584;SDS011;6863;48.402;9.994;2024-01-30T14:27:30;17.40;;;14.37;;
13584;SDS011;6863;48.402;9.994;2024-01-30T14:29:56;16.23;;;13.73;;
13584;SDS011;6863;48.402;9.994;2024-01-30T14:32:22;17.00;;;14.27;;